sensor_id;sensor_type;location;lat;lon;timestamp;P1;durP1;ratioP1;P2;durP2;ratioP2
73793;SDS011;62123;52.518;10.528;2022-11-20T00:01:09;5.60;;;3.03;;
73793;SDS011;62123;52.518;10.528;2022-11-20T00:03:39;5.45;;;2.70;;
73793;SDS011;62123;52.518;10.528;2022-11-20T00:06:07;5.32;;;2.90;;
73793;SDS011;62123;52.518;10.528;2022-11-20T00:08:34;5.47;;;2.97;;
73793;SDS011;62123;52.518;10.528;2022-11-20T00:11:03;5.97;;;2.90;;
73793;SDS011;62123;52.518;10.528;2022-11-20T00:13:30;5.35;;;3.25;;
73793;SDS011;62123;52.518;10.528;2022-11-20T00:15:59;5.70;;;2.83;;
73793;SDS011;62123;52.518;10.528;2022-11-20T00:18:26;5.13;;;3.13;;
73793;SDS011;62123;52.518;10.528;2022-11-20T00:20:52;5.00;;;3.05;;
73793;SDS011;62123;52.518;10.528;2022-11-20T00:23:18;5.10;;;2.73;;
73793;SDS011;62123;52.518;10.528;2022-11-20T00:25:44;5.85;;;2.80;;
73793;SDS011;62123;52.518;10.528;2022-11-20T00:28:10;4.93;;;2.60;;
73793;SDS011;62123;52.518;10.528;2022-11-20T00:30:36;4.80;;;3.20;;
73793;SDS011;62123;52.518;10.528;2022-11-20T00:33:01;4.88;;;2.60;;
73793;SDS011;62123;52.518;10.528;2022-11-20T00:35:27;5.57;;;3.30;;
73793;SDS011;62123;52.518;10.528;2022-11-20T00:37:52;5.93;;;2.90;;
73793;SDS011;62123;52.518;10.528;2022-11-20T00:40:18;6.33;;;3.30;;
73793;SDS011;62123;52.518;10.528;2022-11-20T00:42:43;5.80;;;2.70;;
73793;SDS011;62123;52.518;10.528;2022-11-20T00:45:09;5.33;;;2.80;;
73793;SDS011;62123;52.518;10.528;2022-11-20T00:47:34;5.35;;;2.90;;
73793;SDS011;62123;52.518;10.528;2022-11-20T00:50:00;5.43;;;2.80;;
73793;SDS011;62123;52.518;10.528;2022-11-20T00:52:25;4.53;;;2.50;;
73793;SDS011;62123;52.518;10.528;2022-11-20T00:54:51;5.88;;;2.80;;
73793;SDS011;62123;52.518;10.528;2022-11-20T00:57:16;6.23;;;3.10;;
73793;SDS011;62123;52.518;10.528;2022-11-20T00:59:42;5.00;;;2.60;;
73793;SDS011;62123;52.518;10.528;2022-11-20T01:02:07;8.98;;;3.20;;
73793;SDS011;62123;52.518;10.528;2022-11-20T01:04:33;6.47;;;3.00;;
73793;SDS011;62123;52.518;10.528;2022-11-20T01:06:58;4.80;;;2.80;;
73793;SDS011;62123;52.518;10.528;2022-11-20T01:09:24;5.43;;;2.70;;
73793;SDS011;62123;52.518;10.528;2022-11-20T01:11:49;6.37;;;3.30;;
73793;SDS011;62123;52.518;10.528;2022-11-20T01:14:16;5.70;;;3.20;;
73793;SDS011;62123;52.518;10.528;2022-11-20T01:16:44;6.13;;;3.22;;
73793;SDS011;62123;52.518;10.528;2022-11-20T01:19:14;5.03;;;2.70;;
73793;SDS011;62123;52.518;10.528;2022-11-20T01:21:41;5.23;;;3.13;;
73793;SDS011;62123;52.518;10.528;2022-11-20T01:24:09;4.78;;;2.83;;
73793;SDS011;62123;52.518;10.528;2022-11-20T01:26:37;5.15;;;3.42;;
73793;SDS011;62123;52.518;10.528;2022-11-20T01:29:04;4.67;;;2.63;;
73793;SDS011;62123;52.518;10.528;2022-11-20T01:31:32;4.82;;;2.60;;
73793;SDS011;62123;52.518;10.528;2022-11-20T01:33:59;4.50;;;2.78;;
73793;SDS011;62123;52.518;10.528;2022-11-20T01:36:27;4.82;;;2.80;;
73793;SDS011;62123;52.518;10.528;2022-11-20T01:38:54;4.97;;;2.90;;
73793;SDS011;62123;52.518;10.528;2022-11-20T01:41:20;5.00;;;2.78;;
73793;SDS011;62123;52.518;10.528;2022-11-20T01:44:06;4.65;;;2.60;;
73793;SDS011;62123;52.518;10.528;2022-11-20T01:46:32;4.70;;;3.07;;
73793;SDS011;62123;52.518;10.528;2022-11-20T01:53:55;7.97;;;3.03;;
73793;SDS011;62123;52.518;10.528;2022-11-20T01:56:22;5.13;;;2.70;;
73793;SDS011;62123;52.518;10.528;2022-11-20T01:58:50;5.67;;;2.90;;
73793;SDS011;62123;52.518;10.528;2022-11-20T02:01:17;4.78;;;2.90;;
73793;SDS011;62123;52.518;10.528;2022-11-20T02:03:43;4.88;;;2.90;;
73793;SDS011;62123;52.518;10.528;2022-11-20T02:06:14;5.20;;;2.73;;
73793;SDS011;62123;52.518;10.528;2022-11-20T02:08:44;4.73;;;2.63;;
73793;SDS011;62123;52.518;10.528;2022-11-20T02:11:10;4.82;;;2.72;;
73793;SDS011;62123;52.518;10.528;2022-11-20T02:13:37;5.50;;;2.83;;
73793;SDS011;62123;52.518;10.528;2022-11-20T02:16:29;4.25;;;2.53;;
73793;SDS011;62123;52.518;10.528;2022-11-20T02:18:57;4.65;;;2.33;;
73793;SDS011;62123;52.518;10.528;2022-11-20T02:24:11;4.82;;;2.55;;
73793;SDS011;62123;52.518;10.528;2022-11-20T02:33:09;4.67;;;2.77;;
73793;SDS011;62123;52.518;10.528;2022-11-20T02:38:00;5.90;;;3.13;;
73793;SDS011;62123;52.518;10.528;2022-11-20T02:40:26;5.20;;;2.63;;
73793;SDS011;62123;52.518;10.528;2022-11-20T02:42:55;5.27;;;2.73;;
73793;SDS011;62123;52.518;10.528;2022-11-20T02:45:21;5.25;;;3.38;;
73793;SDS011;62123;52.518;10.528;2022-11-20T02:47:47;3.93;;;2.47;;
73793;SDS011;62123;52.518;10.528;2022-11-20T02:50:13;5.60;;;2.70;;
73793;SDS011;62123;52.518;10.528;2022-11-20T02:52:39;4.70;;;2.50;;
73793;SDS011;62123;52.518;10.528;2022-11-20T02:55:04;5.72;;;2.58;;
73793;SDS011;62123;52.518;10.528;2022-11-20T02:57:30;5.50;;;2.93;;
73793;SDS011;62123;52.518;10.528;2022-11-20T02:59:56;5.68;;;2.85;;
73793;SDS011;62123;52.518;10.528;2022-11-20T03:02:21;5.23;;;2.80;;
73793;SDS011;62123;52.518;10.528;2022-11-20T03:04:47;5.10;;;2.80;;
73793;SDS011;62123;52.518;10.528;2022-11-20T03:07:12;4.28;;;2.63;;
73793;SDS011;62123;52.518;10.528;2022-11-20T03:09:38;4.37;;;2.67;;
73793;SDS011;62123;52.518;10.528;2022-11-20T03:12:03;4.95;;;3.25;;
73793;SDS011;62123;52.518;10.528;2022-11-20T03:14:29;4.83;;;2.63;;
73793;SDS011;62123;52.518;10.528;2022-11-20T03:16:55;5.57;;;2.10;;
73793;SDS011;62123;52.518;10.528;2022-11-20T03:19:20;5.10;;;2.73;;
73793;SDS011;62123;52.518;10.528;2022-11-20T03:21:46;4.70;;;2.93;;
73793;SDS011;62123;52.518;10.528;2022-11-20T03:24:12;5.88;;;2.55;;
73793;SDS011;62123;52.518;10.528;2022-11-20T03:26:38;4.38;;;2.35;;
73793;SDS011;62123;52.518;10.528;2022-11-20T03:29:24;4.63;;;2.30;;
73793;SDS011;62123;52.518;10.528;2022-11-20T03:31:49;4.80;;;3.03;;
73793;SDS011;62123;52.518;10.528;2022-11-20T03:34:15;5.33;;;3.03;;
73793;SDS011;62123;52.518;10.528;2022-11-20T03:36:41;4.78;;;2.50;;
73793;SDS011;62123;52.518;10.528;2022-11-20T03:39:07;4.77;;;2.53;;
73793;SDS011;62123;52.518;10.528;2022-11-20T03:41:35;6.03;;;2.63;;
73793;SDS011;62123;52.518;10.528;2022-11-20T03:44:03;5.47;;;2.90;;
73793;SDS011;62123;52.518;10.528;2022-11-20T03:46:30;6.55;;;2.55;;
73793;SDS011;62123;52.518;10.528;2022-11-20T03:48:56;4.20;;;2.40;;
73793;SDS011;62123;52.518;10.528;2022-11-20T03:51:25;4.93;;;2.63;;
73793;SDS011;62123;52.518;10.528;2022-11-20T03:53:53;5.05;;;2.97;;
73793;SDS011;62123;52.518;10.528;2022-11-20T03:56:22;4.63;;;3.03;;
73793;SDS011;62123;52.518;10.528;2022-11-20T03:58:49;5.13;;;3.10;;
73793;SDS011;62123;52.518;10.528;2022-11-20T04:01:19;5.47;;;2.42;;
73793;SDS011;62123;52.518;10.528;2022-11-20T04:03:47;4.83;;;2.93;;
73793;SDS011;62123;52.518;10.528;2022-11-20T04:06:14;4.72;;;2.75;;
73793;SDS011;62123;52.518;10.528;2022-11-20T04:08:41;4.55;;;2.47;;
73793;SDS011;62123;52.518;10.528;2022-11-20T04:11:14;5.45;;;2.78;;
73793;SDS011;62123;52.518;10.528;2022-11-20T04:13:40;5.10;;;3.00;;
73793;SDS011;62123;52.518;10.528;2022-11-20T04:16:07;5.07;;;2.85;;
73793;SDS011;62123;52.518;10.528;2022-11-20T04:18:33;4.65;;;2.47;;
73793;SDS011;62123;52.518;10.528;2022-11-20T04:20:59;4.60;;;2.57;;
73793;SDS011;62123;52.518;10.528;2022-11-20T04:23:24;4.50;;;2.30;;
73793;SDS011;62123;52.518;10.528;2022-11-20T04:25:50;4.13;;;2.50;;
73793;SDS011;62123;52.518;10.528;2022-11-20T04:28:16;4.83;;;2.50;;
73793;SDS011;62123;52.518;10.528;2022-11-20T04:30:41;4.77;;;2.43;;
73793;SDS011;62123;52.518;10.528;2022-11-20T04:33:07;4.53;;;2.47;;
73793;SDS011;62123;52.518;10.528;2022-11-20T04:35:36;4.72;;;2.40;;
73793;SDS011;62123;52.518;10.528;2022-11-20T04:38:02;4.53;;;2.75;;
73793;SDS011;62123;52.518;10.528;2022-11-20T04:40:28;5.37;;;2.77;;
73793;SDS011;62123;52.518;10.528;2022-11-20T04:42:54;4.38;;;2.40;;
73793;SDS011;62123;52.518;10.528;2022-11-20T04:45:20;4.97;;;2.77;;
73793;SDS011;62123;52.518;10.528;2022-11-20T04:47:45;5.13;;;2.50;;
73793;SDS011;62123;52.518;10.528;2022-11-20T04:50:11;5.65;;;2.60;;
73793;SDS011;62123;52.518;10.528;2022-11-20T04:52:36;4.60;;;2.17;;
73793;SDS011;62123;52.518;10.528;2022-11-20T04:55:02;4.27;;;2.20;;
73793;SDS011;62123;52.518;10.528;2022-11-20T04:57:28;4.63;;;2.17;;
73793;SDS011;62123;52.518;10.528;2022-11-20T04:59:53;4.17;;;2.47;;
73793;SDS011;62123;52.518;10.528;2022-11-20T05:02:19;5.27;;;2.93;;
73793;SDS011;62123;52.518;10.528;2022-11-20T05:04:45;4.47;;;2.45;;
73793;SDS011;62123;52.518;10.528;2022-11-20T05:07:10;4.30;;;2.37;;
73793;SDS011;62123;52.518;10.528;2022-11-20T05:09:36;3.93;;;2.50;;
73793;SDS011;62123;52.518;10.528;2022-11-20T05:12:01;4.53;;;2.60;;
73793;SDS011;62123;52.518;10.528;2022-11-20T05:14:27;5.63;;;3.00;;
73793;SDS011;62123;52.518;10.528;2022-11-20T05:16:52;5.23;;;2.57;;
73793;SDS011;62123;52.518;10.528;2022-11-20T05:19:18;4.20;;;2.55;;
73793;SDS011;62123;52.518;10.528;2022-11-20T05:21:43;4.30;;;2.50;;
73793;SDS011;62123;52.518;10.528;2022-11-20T05:24:09;4.83;;;2.77;;
73793;SDS011;62123;52.518;10.528;2022-11-20T05:26:34;4.82;;;2.28;;
73793;SDS011;62123;52.518;10.528;2022-11-20T05:29:00;4.33;;;2.50;;
73793;SDS011;62123;52.518;10.528;2022-11-20T05:31:26;5.40;;;2.43;;
73793;SDS011;62123;52.518;10.528;2022-11-20T05:33:51;5.00;;;2.05;;
73793;SDS011;62123;52.518;10.528;2022-11-20T05:36:17;4.73;;;2.83;;
73793;SDS011;62123;52.518;10.528;2022-11-20T05:38:43;5.40;;;2.58;;
73793;SDS011;62123;52.518;10.528;2022-11-20T05:41:13;4.18;;;2.10;;
73793;SDS011;62123;52.518;10.528;2022-11-20T05:43:41;4.40;;;2.33;;
73793;SDS011;62123;52.518;10.528;2022-11-20T05:46:08;4.93;;;2.58;;
73793;SDS011;62123;52.518;10.528;2022-11-20T05:48:35;4.30;;;2.00;;
73793;SDS011;62123;52.518;10.528;2022-11-20T05:51:02;4.00;;;2.13;;
73793;SDS011;62123;52.518;10.528;2022-11-20T05:53:28;4.95;;;2.85;;
73793;SDS011;62123;52.518;10.528;2022-11-20T05:58:26;4.83;;;2.40;;
73793;SDS011;62123;52.518;10.528;2022-11-20T06:00:52;4.60;;;2.10;;
73793;SDS011;62123;52.518;10.528;2022-11-20T06:03:18;5.63;;;2.78;;
73793;SDS011;62123;52.518;10.528;2022-11-20T06:05:44;4.13;;;2.10;;
73793;SDS011;62123;52.518;10.528;2022-11-20T06:08:09;4.63;;;2.30;;
73793;SDS011;62123;52.518;10.528;2022-11-20T06:10:35;4.00;;;2.27;;
73793;SDS011;62123;52.518;10.528;2022-11-20T06:13:00;4.00;;;2.20;;
73793;SDS011;62123;52.518;10.528;2022-11-20T06:15:26;4.32;;;2.30;;
73793;SDS011;62123;52.518;10.528;2022-11-20T06:17:54;4.33;;;2.60;;
73793;SDS011;62123;52.518;10.528;2022-11-20T06:20:21;4.95;;;2.38;;
73793;SDS011;62123;52.518;10.528;2022-11-20T06:22:47;4.77;;;2.37;;
73793;SDS011;62123;52.518;10.528;2022-11-20T06:25:12;4.35;;;2.03;;
73793;SDS011;62123;52.518;10.528;2022-11-20T06:27:38;4.60;;;2.40;;
73793;SDS011;62123;52.518;10.528;2022-11-20T06:30:04;4.40;;;2.37;;
73793;SDS011;62123;52.518;10.528;2022-11-20T06:32:50;4.30;;;2.15;;
73793;SDS011;62123;52.518;10.528;2022-11-20T06:35:15;4.17;;;2.27;;
73793;SDS011;62123;52.518;10.528;2022-11-20T06:37:41;5.97;;;2.80;;
73793;SDS011;62123;52.518;10.528;2022-11-20T06:40:07;4.00;;;2.28;;
73793;SDS011;62123;52.518;10.528;2022-11-20T06:42:33;3.93;;;2.20;;
73793;SDS011;62123;52.518;10.528;2022-11-20T06:44:58;4.03;;;1.70;;
73793;SDS011;62123;52.518;10.528;2022-11-20T06:47:24;4.37;;;2.37;;
73793;SDS011;62123;52.518;10.528;2022-11-20T06:49:49;4.03;;;2.20;;
73793;SDS011;62123;52.518;10.528;2022-11-20T06:52:15;4.38;;;2.20;;
73793;SDS011;62123;52.518;10.528;2022-11-20T06:54:40;4.57;;;2.17;;
73793;SDS011;62123;52.518;10.528;2022-11-20T06:57:06;3.93;;;2.07;;
73793;SDS011;62123;52.518;10.528;2022-11-20T06:59:31;4.10;;;2.00;;
73793;SDS011;62123;52.518;10.528;2022-11-20T07:01:57;4.37;;;1.87;;
73793;SDS011;62123;52.518;10.528;2022-11-20T07:04:22;4.40;;;1.70;;
73793;SDS011;62123;52.518;10.528;2022-11-20T07:06:48;4.30;;;2.80;;
73793;SDS011;62123;52.518;10.528;2022-11-20T07:09:14;4.40;;;2.37;;
73793;SDS011;62123;52.518;10.528;2022-11-20T07:11:39;4.30;;;2.60;;
73793;SDS011;62123;52.518;10.528;2022-11-20T07:14:05;5.70;;;3.13;;
73793;SDS011;62123;52.518;10.528;2022-11-20T07:16:30;3.97;;;2.03;;
73793;SDS011;62123;52.518;10.528;2022-11-20T07:18:56;4.22;;;2.65;;
73793;SDS011;62123;52.518;10.528;2022-11-20T07:21:21;4.37;;;2.43;;
73793;SDS011;62123;52.518;10.528;2022-11-20T07:23:47;5.70;;;2.37;;
73793;SDS011;62123;52.518;10.528;2022-11-20T07:26:12;5.13;;;2.85;;
73793;SDS011;62123;52.518;10.528;2022-11-20T07:28:38;7.47;;;3.60;;
73793;SDS011;62123;52.518;10.528;2022-11-20T07:31:03;5.47;;;2.67;;
73793;SDS011;62123;52.518;10.528;2022-11-20T07:33:29;4.70;;;2.50;;
73793;SDS011;62123;52.518;10.528;2022-11-20T07:35:55;4.65;;;2.20;;
73793;SDS011;62123;52.518;10.528;2022-11-20T07:38:21;5.60;;;2.50;;
73793;SDS011;62123;52.518;10.528;2022-11-20T07:40:46;4.30;;;2.60;;
73793;SDS011;62123;52.518;10.528;2022-11-20T07:43:12;5.35;;;2.30;;
73793;SDS011;62123;52.518;10.528;2022-11-20T07:45:37;5.50;;;2.10;;
73793;SDS011;62123;52.518;10.528;2022-11-20T07:48:02;6.97;;;3.67;;
73793;SDS011;62123;52.518;10.528;2022-11-20T07:50:28;7.57;;;4.60;;
73793;SDS011;62123;52.518;10.528;2022-11-20T07:53:04;7.93;;;5.20;;
73793;SDS011;62123;52.518;10.528;2022-11-20T07:55:30;9.60;;;6.32;;
73793;SDS011;62123;52.518;10.528;2022-11-20T07:57:58;9.27;;;5.68;;
73793;SDS011;62123;52.518;10.528;2022-11-20T08:00:25;11.13;;;6.20;;
73793;SDS011;62123;52.518;10.528;2022-11-20T08:02:51;9.43;;;5.72;;
73793;SDS011;62123;52.518;10.528;2022-11-20T08:05:16;11.33;;;5.57;;
73793;SDS011;62123;52.518;10.528;2022-11-20T08:07:42;9.65;;;5.05;;
73793;SDS011;62123;52.518;10.528;2022-11-20T08:10:10;7.30;;;4.30;;
73793;SDS011;62123;52.518;10.528;2022-11-20T08:12:43;9.45;;;4.35;;
73793;SDS011;62123;52.518;10.528;2022-11-20T08:15:31;7.67;;;4.20;;
73793;SDS011;62123;52.518;10.528;2022-11-20T08:18:04;6.38;;;3.60;;
73793;SDS011;62123;52.518;10.528;2022-11-20T08:20:32;8.40;;;4.22;;
73793;SDS011;62123;52.518;10.528;2022-11-20T08:22:59;6.03;;;3.53;;
73793;SDS011;62123;52.518;10.528;2022-11-20T08:25:25;6.10;;;3.43;;
73793;SDS011;62123;52.518;10.528;2022-11-20T08:27:51;6.80;;;3.25;;
73793;SDS011;62123;52.518;10.528;2022-11-20T08:30:17;7.43;;;3.33;;
73793;SDS011;62123;52.518;10.528;2022-11-20T08:32:42;6.40;;;3.20;;
73793;SDS011;62123;52.518;10.528;2022-11-20T08:35:08;6.53;;;2.83;;
73793;SDS011;62123;52.518;10.528;2022-11-20T08:37:33;5.47;;;2.80;;
73793;SDS011;62123;52.518;10.528;2022-11-20T08:39:59;6.00;;;2.85;;
73793;SDS011;62123;52.518;10.528;2022-11-20T08:42:25;5.33;;;2.80;;
73793;SDS011;62123;52.518;10.528;2022-11-20T08:44:50;5.90;;;2.85;;
73793;SDS011;62123;52.518;10.528;2022-11-20T08:47:15;5.47;;;2.77;;
73793;SDS011;62123;52.518;10.528;2022-11-20T08:49:41;8.47;;;2.57;;
73793;SDS011;62123;52.518;10.528;2022-11-20T08:52:06;9.73;;;3.20;;
73793;SDS011;62123;52.518;10.528;2022-11-20T08:54:32;5.93;;;2.83;;
73793;SDS011;62123;52.518;10.528;2022-11-20T08:56:57;5.93;;;2.90;;
73793;SDS011;62123;52.518;10.528;2022-11-20T08:59:23;5.15;;;2.78;;
73793;SDS011;62123;52.518;10.528;2022-11-20T09:01:48;4.77;;;2.23;;
73793;SDS011;62123;52.518;10.528;2022-11-20T09:04:14;5.78;;;2.67;;
73793;SDS011;62123;52.518;10.528;2022-11-20T09:06:40;5.30;;;2.30;;
73793;SDS011;62123;52.518;10.528;2022-11-20T09:09:06;8.00;;;2.60;;
73793;SDS011;62123;52.518;10.528;2022-11-20T09:11:31;5.18;;;2.35;;
73793;SDS011;62123;52.518;10.528;2022-11-20T09:13:57;7.77;;;2.70;;
73793;SDS011;62123;52.518;10.528;2022-11-20T09:16:22;4.70;;;1.98;;
73793;SDS011;62123;52.518;10.528;2022-11-20T09:18:49;7.67;;;2.27;;
73793;SDS011;62123;52.518;10.528;2022-11-20T09:21:15;7.07;;;2.15;;
73793;SDS011;62123;52.518;10.528;2022-11-20T09:23:40;10.60;;;3.00;;
73793;SDS011;62123;52.518;10.528;2022-11-20T09:26:07;6.90;;;2.30;;
73793;SDS011;62123;52.518;10.528;2022-11-20T09:28:36;9.45;;;2.85;;
73793;SDS011;62123;52.518;10.528;2022-11-20T09:31:17;7.32;;;3.22;;
73793;SDS011;62123;52.518;10.528;2022-11-20T09:33:47;15.30;;;3.88;;
73793;SDS011;62123;52.518;10.528;2022-11-20T09:36:12;12.00;;;4.70;;
73793;SDS011;62123;52.518;10.528;2022-11-20T09:38:38;14.67;;;3.30;;
73793;SDS011;62123;52.518;10.528;2022-11-20T09:41:04;8.25;;;3.40;;
73793;SDS011;62123;52.518;10.528;2022-11-20T09:43:56;11.57;;;3.30;;
73793;SDS011;62123;52.518;10.528;2022-11-20T09:46:26;12.20;;;2.83;;
73793;SDS011;62123;52.518;10.528;2022-11-20T09:54:16;11.40;;;3.80;;
73793;SDS011;62123;52.518;10.528;2022-11-20T09:56:48;16.55;;;4.05;;
73793;SDS011;62123;52.518;10.528;2022-11-20T09:59:26;20.75;;;4.60;;
73793;SDS011;62123;52.518;10.528;2022-11-20T10:02:26;18.77;;;4.13;;
73793;SDS011;62123;52.518;10.528;2022-11-20T10:05:04;17.83;;;6.47;;
73793;SDS011;62123;52.518;10.528;2022-11-20T10:10:16;16.42;;;4.72;;
73793;SDS011;62123;52.518;10.528;2022-11-20T10:15:32;17.33;;;4.63;;
73793;SDS011;62123;52.518;10.528;2022-11-20T10:18:07;21.00;;;3.63;;
73793;SDS011;62123;52.518;10.528;2022-11-20T10:20:44;15.43;;;4.45;;
73793;SDS011;62123;52.518;10.528;2022-11-20T10:24:02;21.37;;;3.90;;
73793;SDS011;62123;52.518;10.528;2022-11-20T10:29:33;22.17;;;4.18;;
73793;SDS011;62123;52.518;10.528;2022-11-20T10:32:10;26.40;;;4.43;;
73793;SDS011;62123;52.518;10.528;2022-11-20T10:37:26;17.42;;;3.65;;
73793;SDS011;62123;52.518;10.528;2022-11-20T10:43:09;15.37;;;4.23;;
73793;SDS011;62123;52.518;10.528;2022-11-20T10:48:32;11.75;;;3.30;;
73793;SDS011;62123;52.518;10.528;2022-11-20T11:01:28;10.15;;;2.83;;
73793;SDS011;62123;52.518;10.528;2022-11-20T11:03:54;13.00;;;3.97;;
73793;SDS011;62123;52.518;10.528;2022-11-20T11:09:04;21.87;;;3.53;;
73793;SDS011;62123;52.518;10.528;2022-11-20T11:11:35;14.47;;;3.87;;
73793;SDS011;62123;52.518;10.528;2022-11-20T11:14:04;16.98;;;3.25;;
73793;SDS011;62123;52.518;10.528;2022-11-20T11:16:35;13.63;;;3.22;;
73793;SDS011;62123;52.518;10.528;2022-11-20T11:19:19;14.83;;;3.93;;
73793;SDS011;62123;52.518;10.528;2022-11-20T11:21:51;14.65;;;2.95;;
73793;SDS011;62123;52.518;10.528;2022-11-20T11:24:20;15.18;;;3.58;;
73793;SDS011;62123;52.518;10.528;2022-11-20T11:29:29;15.00;;;3.40;;
73793;SDS011;62123;52.518;10.528;2022-11-20T11:32:19;11.57;;;3.35;;
73793;SDS011;62123;52.518;10.528;2022-11-20T11:35:18;15.13;;;3.80;;
73793;SDS011;62123;52.518;10.528;2022-11-20T11:37:37;12.63;;;2.80;;
73793;SDS011;62123;52.518;10.528;2022-11-20T11:40:04;8.73;;;2.75;;
73793;SDS011;62123;52.518;10.528;2022-11-20T11:42:30;11.32;;;2.40;;
73793;SDS011;62123;52.518;10.528;2022-11-20T11:44:56;11.23;;;3.40;;
73793;SDS011;62123;52.518;10.528;2022-11-20T11:47:35;10.68;;;3.33;;
73793;SDS011;62123;52.518;10.528;2022-11-20T11:55:45;11.40;;;2.87;;
73793;SDS011;62123;52.518;10.528;2022-11-20T11:58:15;8.68;;;3.13;;
73793;SDS011;62123;52.518;10.528;2022-11-20T12:00:48;11.23;;;3.65;;
73793;SDS011;62123;52.518;10.528;2022-11-20T12:03:32;13.13;;;2.70;;
73793;SDS011;62123;52.518;10.528;2022-11-20T12:06:05;8.63;;;2.70;;
73793;SDS011;62123;52.518;10.528;2022-11-20T12:08:50;8.15;;;3.33;;
73793;SDS011;62123;52.518;10.528;2022-11-20T12:11:32;9.93;;;2.75;;
73793;SDS011;62123;52.518;10.528;2022-11-20T12:16:40;10.55;;;2.95;;
73793;SDS011;62123;52.518;10.528;2022-11-20T12:19:13;9.27;;;2.78;;
73793;SDS011;62123;52.518;10.528;2022-11-20T12:30:09;7.80;;;3.07;;
73793;SDS011;62123;52.518;10.528;2022-11-20T12:38:18;5.75;;;2.45;;
73793;SDS011;62123;52.518;10.528;2022-11-20T12:43:45;8.77;;;1.88;;
73793;SDS011;62123;52.518;10.528;2022-11-20T12:46:49;7.45;;;1.90;;
73793;SDS011;62123;52.518;10.528;2022-11-20T12:55:23;8.75;;;2.50;;
73793;SDS011;62123;52.518;10.528;2022-11-20T12:57:55;9.70;;;2.78;;
73793;SDS011;62123;52.518;10.528;2022-11-20T13:00:23;5.83;;;2.50;;
73793;SDS011;62123;52.518;10.528;2022-11-20T13:08:02;7.30;;;2.63;;
73793;SDS011;62123;52.518;10.528;2022-11-20T13:18:30;10.57;;;2.60;;
73793;SDS011;62123;52.518;10.528;2022-11-20T13:21:12;6.68;;;1.52;;
73793;SDS011;62123;52.518;10.528;2022-11-20T13:23:46;5.38;;;1.83;;
73793;SDS011;62123;52.518;10.528;2022-11-20T13:26:16;5.73;;;2.17;;
73793;SDS011;62123;52.518;10.528;2022-11-20T13:28:46;5.65;;;2.15;;
73793;SDS011;62123;52.518;10.528;2022-11-20T13:31:29;6.47;;;2.23;;
73793;SDS011;62123;52.518;10.528;2022-11-20T13:33:56;6.17;;;2.50;;
73793;SDS011;62123;52.518;10.528;2022-11-20T13:36:23;4.68;;;2.25;;
73793;SDS011;62123;52.518;10.528;2022-11-20T13:38:52;6.25;;;2.70;;
73793;SDS011;62123;52.518;10.528;2022-11-20T13:41:26;6.43;;;2.07;;
73793;SDS011;62123;52.518;10.528;2022-11-20T13:46:38;6.82;;;2.38;;
73793;SDS011;62123;52.518;10.528;2022-11-20T13:49:22;8.23;;;2.28;;
73793;SDS011;62123;52.518;10.528;2022-11-20T13:54:58;5.60;;;1.80;;
73793;SDS011;62123;52.518;10.528;2022-11-20T14:00:23;5.75;;;2.20;;
73793;SDS011;62123;52.518;10.528;2022-11-20T14:05:23;6.73;;;2.03;;
73793;SDS011;62123;52.518;10.528;2022-11-20T14:07:50;7.22;;;2.45;;
73793;SDS011;62123;52.518;10.528;2022-11-20T14:10:20;5.57;;;1.87;;
73793;SDS011;62123;52.518;10.528;2022-11-20T14:12:55;5.30;;;2.20;;
73793;SDS011;62123;52.518;10.528;2022-11-20T14:15:30;4.65;;;1.60;;
73793;SDS011;62123;52.518;10.528;2022-11-20T14:17:59;4.67;;;1.73;;
73793;SDS011;62123;52.518;10.528;2022-11-20T14:20:29;5.03;;;2.05;;
73793;SDS011;62123;52.518;10.528;2022-11-20T14:22:56;6.32;;;2.20;;
73793;SDS011;62123;52.518;10.528;2022-11-20T14:25:25;4.67;;;2.03;;
73793;SDS011;62123;52.518;10.528;2022-11-20T14:27:59;5.03;;;1.67;;
73793;SDS011;62123;52.518;10.528;2022-11-20T14:30:26;4.68;;;1.77;;
73793;SDS011;62123;52.518;10.528;2022-11-20T14:32:57;4.32;;;1.88;;
73793;SDS011;62123;52.518;10.528;2022-11-20T14:35:27;5.20;;;2.07;;
73793;SDS011;62123;52.518;10.528;2022-11-20T14:37:54;4.55;;;1.98;;
73793;SDS011;62123;52.518;10.528;2022-11-20T14:40:34;4.70;;;2.10;;
73793;SDS011;62123;52.518;10.528;2022-11-20T14:43:00;5.13;;;2.13;;
73793;SDS011;62123;52.518;10.528;2022-11-20T14:45:27;3.93;;;1.77;;
73793;SDS011;62123;52.518;10.528;2022-11-20T14:47:53;4.97;;;1.90;;
73793;SDS011;62123;52.518;10.528;2022-11-20T14:50:27;5.68;;;1.80;;
73793;SDS011;62123;52.518;10.528;2022-11-20T14:53:00;3.67;;;1.57;;
73793;SDS011;62123;52.518;10.528;2022-11-20T14:57:55;5.20;;;1.98;;
73793;SDS011;62123;52.518;10.528;2022-11-20T15:00:27;5.28;;;2.03;;
73793;SDS011;62123;52.518;10.528;2022-11-20T15:02:53;5.00;;;2.00;;
73793;SDS011;62123;52.518;10.528;2022-11-20T15:05:20;4.13;;;2.15;;
73793;SDS011;62123;52.518;10.528;2022-11-20T15:07:48;4.20;;;1.90;;
73793;SDS011;62123;52.518;10.528;2022-11-20T15:10:20;4.17;;;1.57;;
73793;SDS011;62123;52.518;10.528;2022-11-20T15:12:54;4.22;;;2.17;;
73793;SDS011;62123;52.518;10.528;2022-11-20T15:15:38;4.90;;;1.45;;
73793;SDS011;62123;52.518;10.528;2022-11-20T15:18:13;2.93;;;1.17;;
73793;SDS011;62123;52.518;10.528;2022-11-20T15:20:40;4.60;;;1.98;;
73793;SDS011;62123;52.518;10.528;2022-11-20T15:23:13;4.60;;;1.63;;
73793;SDS011;62123;52.518;10.528;2022-11-20T15:25:40;3.33;;;1.20;;
73793;SDS011;62123;52.518;10.528;2022-11-20T15:28:16;4.37;;;1.43;;
73793;SDS011;62123;52.518;10.528;2022-11-20T15:30:50;3.65;;;1.50;;
73793;SDS011;62123;52.518;10.528;2022-11-20T15:33:16;3.93;;;1.73;;
73793;SDS011;62123;52.518;10.528;2022-11-20T15:35:42;4.13;;;1.10;;
73793;SDS011;62123;52.518;10.528;2022-11-20T15:38:08;4.13;;;1.40;;
73793;SDS011;62123;52.518;10.528;2022-11-20T15:40:34;4.00;;;1.10;;
73793;SDS011;62123;52.518;10.528;2022-11-20T15:42:59;4.90;;;1.65;;
73793;SDS011;62123;52.518;10.528;2022-11-20T15:45:31;3.97;;;1.40;;
73793;SDS011;62123;52.518;10.528;2022-11-20T15:48:16;3.10;;;1.33;;
73793;SDS011;62123;52.518;10.528;2022-11-20T15:50:58;4.75;;;1.67;;
73793;SDS011;62123;52.518;10.528;2022-11-20T15:53:25;3.90;;;1.42;;
73793;SDS011;62123;52.518;10.528;2022-11-20T15:55:50;4.30;;;1.53;;
73793;SDS011;62123;52.518;10.528;2022-11-20T15:58:16;3.47;;;1.20;;
73793;SDS011;62123;52.518;10.528;2022-11-20T16:00:44;3.85;;;1.50;;
73793;SDS011;62123;52.518;10.528;2022-11-20T16:03:13;4.33;;;1.63;;
73793;SDS011;62123;52.518;10.528;2022-11-20T16:05:39;4.18;;;1.38;;
73793;SDS011;62123;52.518;10.528;2022-11-20T16:08:05;4.45;;;1.70;;
73793;SDS011;62123;52.518;10.528;2022-11-20T16:10:30;6.67;;;2.17;;
73793;SDS011;62123;52.518;10.528;2022-11-20T16:12:56;9.53;;;2.57;;
73793;SDS011;62123;52.518;10.528;2022-11-20T16:15:52;11.52;;;2.85;;
73793;SDS011;62123;52.518;10.528;2022-11-20T16:18:21;5.78;;;2.42;;
73793;SDS011;62123;52.518;10.528;2022-11-20T16:20:51;11.10;;;2.83;;
73793;SDS011;62123;52.518;10.528;2022-11-20T16:23:17;5.53;;;2.50;;
73793;SDS011;62123;52.518;10.528;2022-11-20T16:25:44;6.45;;;2.50;;
73793;SDS011;62123;52.518;10.528;2022-11-20T16:28:10;6.47;;;2.00;;
73793;SDS011;62123;52.518;10.528;2022-11-20T16:30:36;8.23;;;3.57;;
73793;SDS011;62123;52.518;10.528;2022-11-20T16:33:02;8.50;;;2.60;;
73793;SDS011;62123;52.518;10.528;2022-11-20T16:35:29;8.75;;;2.90;;
73793;SDS011;62123;52.518;10.528;2022-11-20T16:37:55;7.10;;;2.23;;